sensor_id;sensor_type;location;lat;lon;timestamp;temperature;humidity
75164;HTU21D;63746;45.402;37.922;2022-12-20T00:00:49;0.25;73.62
75164;HTU21D;63746;45.402;37.922;2022-12-20T00:03:15;0.27;73.64
75164;HTU21D;63746;45.402;37.922;2022-12-20T00:05:42;0.25;73.65
75164;HTU21D;63746;45.402;37.922;2022-12-20T00:08:09;0.24;73.64
75164;HTU21D;63746;45.402;37.922;2022-12-20T00:10:40;0.24;73.61
75164;HTU21D;63746;45.402;37.922;2022-12-20T00:13:07;0.24;73.61
75164;HTU21D;63746;45.402;37.922;2022-12-20T00:15:33;0.23;73.58
75164;HTU21D;63746;45.402;37.922;2022-12-20T00:17:59;0.19;73.38
75164;HTU21D;63746;45.402;37.922;2022-12-20T00:20:27;0.16;73.43
75164;HTU21D;63746;45.402;37.922;2022-12-20T00:22:53;0.14;73.46
75164;HTU21D;63746;45.402;37.922;2022-12-20T00:25:19;0.15;73.56
75164;HTU21D;63746;45.402;37.922;2022-12-20T00:27:49;0.13;73.59
75164;HTU21D;63746;45.402;37.922;2022-12-20T00:30:15;0.13;73.60
75164;HTU21D;63746;45.402;37.922;2022-12-20T00:32:42;0.13;73.63
75164;HTU21D;63746;45.402;37.922;2022-12-20T00:35:09;0.10;73.64
75164;HTU21D;63746;45.402;37.922;2022-12-20T00:37:35;0.10;73.63
75164;HTU21D;63746;45.402;37.922;2022-12-20T00:40:02;0.10;73.63
75164;HTU21D;63746;45.402;37.922;2022-12-20T00:42:28;0.10;73.65
75164;HTU21D;63746;45.402;37.922;2022-12-20T00:44:54;0.08;73.64
75164;HTU21D;63746;45.402;37.922;2022-12-20T00:47:20;0.08;73.72
75164;HTU21D;63746;45.402;37.922;2022-12-20T00:49:46;0.08;73.76
75164;HTU21D;63746;45.402;37.922;2022-12-20T00:52:12;0.10;73.79
75164;HTU21D;63746;45.402;37.922;2022-12-20T00:54:38;0.10;73.80
75164;HTU21D;63746;45.402;37.922;2022-12-20T00:57:04;0.13;73.80
75164;HTU21D;63746;45.402;37.922;2022-12-20T00:59:32;0.13;73.82
75164;HTU21D;63746;45.402;37.922;2022-12-20T01:01:58;0.13;73.82
75164;HTU21D;63746;45.402;37.922;2022-12-20T01:04:24;0.13;73.78
75164;HTU21D;63746;45.402;37.922;2022-12-20T01:06:51;0.13;73.72
75164;HTU21D;63746;45.402;37.922;2022-12-20T01:09:17;0.12;73.68
75164;HTU21D;63746;45.402;37.922;2022-12-20T01:11:43;0.12;73.70
75164;HTU21D;63746;45.402;37.922;2022-12-20T01:14:12;0.10;73.67
75164;HTU21D;63746;45.402;37.922;2022-12-20T01:16:43;0.10;73.65
75164;HTU21D;63746;45.402;37.922;2022-12-20T01:19:12;0.08;73.64
75164;HTU21D;63746;45.402;37.922;2022-12-20T01:21:39;0.08;73.62
75164;HTU21D;63746;45.402;37.922;2022-12-20T01:24:17;0.08;73.61
75164;HTU21D;63746;45.402;37.922;2022-12-20T01:26:45;0.07;73.58
75164;HTU21D;63746;45.402;37.922;2022-12-20T01:29:13;0.06;73.61
75164;HTU21D;63746;45.402;37.922;2022-12-20T01:31:39;0.04;73.61
75164;HTU21D;63746;45.402;37.922;2022-12-20T01:34:05;0.05;73.57
75164;HTU21D;63746;45.402;37.922;2022-12-20T01:36:33;0.04;73.57
75164;HTU21D;63746;45.402;37.922;2022-12-20T01:39:00;0.02;73.57
75164;HTU21D;63746;45.402;37.922;2022-12-20T01:41:29;0.02;73.52
75164;HTU21D;63746;45.402;37.922;2022-12-20T01:44:04;-0.00;73.50
75164;HTU21D;63746;45.402;37.922;2022-12-20T01:46:33;-0.01;73.54
75164;HTU21D;63746;45.402;37.922;2022-12-20T01:51:35;-0.05;73.48
75164;HTU21D;63746;45.402;37.922;2022-12-20T01:54:07;-0.07;73.49
75164;HTU21D;63746;45.402;37.922;2022-12-20T01:56:35;-0.07;73.48
75164;HTU21D;63746;45.402;37.922;2022-12-20T01:59:03;-0.08;73.45
75164;HTU21D;63746;45.402;37.922;2022-12-20T02:01:28;-0.11;73.40
75164;HTU21D;63746;45.402;37.922;2022-12-20T02:03:55;-0.13;73.36
75164;HTU21D;63746;45.402;37.922;2022-12-20T02:06:24;-0.16;73.36
75164;HTU21D;63746;45.402;37.922;2022-12-20T02:08:52;-0.17;73.41
75164;HTU21D;63746;45.402;37.922;2022-12-20T02:16:46;-0.25;73.44
75164;HTU21D;63746;45.402;37.922;2022-12-20T02:19:29;-0.27;73.42
75164;HTU21D;63746;45.402;37.922;2022-12-20T02:22:21;-0.29;73.30
75164;HTU21D;63746;45.402;37.922;2022-12-20T02:30:22;-0.35;73.44
75164;HTU21D;63746;45.402;37.922;2022-12-20T02:33:07;-0.35;73.39
75164;HTU21D;63746;45.402;37.922;2022-12-20T02:35:37;-0.37;73.38
75164;HTU21D;63746;45.402;37.922;2022-12-20T02:40:58;-0.38;73.40
75164;HTU21D;63746;45.402;37.922;2022-12-20T02:43:26;-0.39;73.42
75164;HTU21D;63746;45.402;37.922;2022-12-20T02:46:12;-0.40;73.35
75164;HTU21D;63746;45.402;37.922;2022-12-20T02:48:39;-0.41;73.30
75164;HTU21D;63746;45.402;37.922;2022-12-20T02:51:08;-0.44;73.30
75164;HTU21D;63746;45.402;37.922;2022-12-20T02:53:36;-0.44;73.29
75164;HTU21D;63746;45.402;37.922;2022-12-20T02:56:11;-0.46;73.38
75164;HTU21D;63746;45.402;37.922;2022-12-20T02:58:42;-0.46;73.41
75164;HTU21D;63746;45.402;37.922;2022-12-20T03:01:40;-0.45;73.29
75164;HTU21D;63746;45.402;37.922;2022-12-20T03:04:07;-0.47;73.42
75164;HTU21D;63746;45.402;37.922;2022-12-20T03:06:34;-0.47;73.45
75164;HTU21D;63746;45.402;37.922;2022-12-20T03:09:01;-0.47;73.51
75164;HTU21D;63746;45.402;37.922;2022-12-20T03:11:29;-0.47;73.50
75164;HTU21D;63746;45.402;37.922;2022-12-20T03:13:55;-0.50;73.44
75164;HTU21D;63746;45.402;37.922;2022-12-20T03:16:21;-0.50;73.57
75164;HTU21D;63746;45.402;37.922;2022-12-20T03:18:47;-0.49;73.61
75164;HTU21D;63746;45.402;37.922;2022-12-20T03:21:13;-0.49;73.65
75164;HTU21D;63746;45.402;37.922;2022-12-20T03:23:39;-0.47;73.62
75164;HTU21D;63746;45.402;37.922;2022-12-20T03:26:05;-0.47;73.67
75164;HTU21D;63746;45.402;37.922;2022-12-20T03:28:40;-0.47;73.69
75164;HTU21D;63746;45.402;37.922;2022-12-20T03:31:08;-0.46;73.72
75164;HTU21D;63746;45.402;37.922;2022-12-20T03:33:42;-0.45;73.62
75164;HTU21D;63746;45.402;37.922;2022-12-20T03:36:08;-0.50;73.58
75164;HTU21D;63746;45.402;37.922;2022-12-20T03:38:35;-0.49;73.70
75164;HTU21D;63746;45.402;37.922;2022-12-20T03:41:03;-0.46;73.83
75164;HTU21D;63746;45.402;37.922;2022-12-20T03:43:30;-0.44;73.88
75164;HTU21D;63746;45.402;37.922;2022-12-20T03:45:56;-0.43;73.86
75164;HTU21D;63746;45.402;37.922;2022-12-20T03:48:22;-0.41;73.84
75164;HTU21D;63746;45.402;37.922;2022-12-20T03:50:48;-0.40;73.81
75164;HTU21D;63746;45.402;37.922;2022-12-20T03:53:14;-0.39;73.83
75164;HTU21D;63746;45.402;37.922;2022-12-20T03:55:41;-0.38;73.78
75164;HTU21D;63746;45.402;37.922;2022-12-20T03:58:07;-0.38;73.73
75164;HTU21D;63746;45.402;37.922;2022-12-20T04:00:36;-0.39;73.62
75164;HTU21D;63746;45.402;37.922;2022-12-20T04:03:25;-0.41;73.73
75164;HTU21D;63746;45.402;37.922;2022-12-20T04:05:51;-0.41;73.76
75164;HTU21D;63746;45.402;37.922;2022-12-20T04:08:17;-0.42;73.77
75164;HTU21D;63746;45.402;37.922;2022-12-20T04:10:43;-0.42;73.79
75164;HTU21D;63746;45.402;37.922;2022-12-20T04:13:32;-0.42;73.76
75164;HTU21D;63746;45.402;37.922;2022-12-20T04:15:58;-0.42;73.73
75164;HTU21D;63746;45.402;37.922;2022-12-20T04:18:27;-0.43;73.65
75164;HTU21D;63746;45.402;37.922;2022-12-20T04:20:53;-0.44;73.56
75164;HTU21D;63746;45.402;37.922;2022-12-20T04:23:24;-0.45;73.52
75164;HTU21D;63746;45.402;37.922;2022-12-20T04:25:51;-0.49;73.51
75164;HTU21D;63746;45.402;37.922;2022-12-20T04:28:17;-0.50;73.51
75164;HTU21D;63746;45.402;37.922;2022-12-20T04:30:44;-0.52;73.46
75164;HTU21D;63746;45.402;37.922;2022-12-20T04:33:12;-0.54;73.40
75164;HTU21D;63746;45.402;37.922;2022-12-20T04:35:38;-0.55;73.38
75164;HTU21D;63746;45.402;37.922;2022-12-20T04:38:04;-0.57;73.41
75164;HTU21D;63746;45.402;37.922;2022-12-20T04:40:31;-0.57;73.45
75164;HTU21D;63746;45.402;37.922;2022-12-20T04:43:00;-0.57;73.44
75164;HTU21D;63746;45.402;37.922;2022-12-20T04:45:26;-0.58;73.42
75164;HTU21D;63746;45.402;37.922;2022-12-20T04:47:54;-0.59;73.36
75164;HTU21D;63746;45.402;37.922;2022-12-20T04:50:25;-0.61;73.36
75164;HTU21D;63746;45.402;37.922;2022-12-20T04:52:52;-0.61;73.37
75164;HTU21D;63746;45.402;37.922;2022-12-20T04:55:38;-0.61;73.39
75164;HTU21D;63746;45.402;37.922;2022-12-20T04:58:06;-0.64;73.41
75164;HTU21D;63746;45.402;37.922;2022-12-20T05:00:34;-0.62;73.44
75164;HTU21D;63746;45.402;37.922;2022-12-20T05:03:08;-0.64;73.39
75164;HTU21D;63746;45.402;37.922;2022-12-20T05:05:34;-0.66;73.37
75164;HTU21D;63746;45.402;37.922;2022-12-20T05:08:00;-0.66;73.39
75164;HTU21D;63746;45.402;37.922;2022-12-20T05:10:27;-0.67;73.38
75164;HTU21D;63746;45.402;37.922;2022-12-20T05:12:56;-0.67;73.44
75164;HTU21D;63746;45.402;37.922;2022-12-20T05:15:34;-0.66;73.46
75164;HTU21D;63746;45.402;37.922;2022-12-20T05:18:00;-0.67;73.37
75164;HTU21D;63746;45.402;37.922;2022-12-20T05:20:34;-0.70;73.27
75164;HTU21D;63746;45.402;37.922;2022-12-20T05:23:02;-0.71;73.22
75164;HTU21D;63746;45.402;37.922;2022-12-20T05:25:52;-0.75;73.29
75164;HTU21D;63746;45.402;37.922;2022-12-20T05:28:37;-0.75;73.47
75164;HTU21D;63746;45.402;37.922;2022-12-20T05:31:03;-0.75;73.50
75164;HTU21D;63746;45.402;37.922;2022-12-20T05:33:32;-0.74;73.59
75164;HTU21D;63746;45.402;37.922;2022-12-20T05:35:59;-0.71;73.72
75164;HTU21D;63746;45.402;37.922;2022-12-20T05:38:25;-0.68;73.83
75164;HTU21D;63746;45.402;37.922;2022-12-20T05:40:52;-0.64;73.85
75164;HTU21D;63746;45.402;37.922;2022-12-20T05:43:18;-0.61;73.77
75164;HTU21D;63746;45.402;37.922;2022-12-20T05:45:47;-0.60;73.72
75164;HTU21D;63746;45.402;37.922;2022-12-20T05:48:18;-0.58;73.67
75164;HTU21D;63746;45.402;37.922;2022-12-20T05:50:45;-0.58;73.75
75164;HTU21D;63746;45.402;37.922;2022-12-20T05:53:28;-0.56;73.67
75164;HTU21D;63746;45.402;37.922;2022-12-20T05:55:58;-0.54;73.83
75164;HTU21D;63746;45.402;37.922;2022-12-20T05:58:28;-0.50;73.90
75164;HTU21D;63746;45.402;37.922;2022-12-20T06:01:03;-0.49;73.83
75164;HTU21D;63746;45.402;37.922;2022-12-20T06:03:34;-0.49;73.78
75164;HTU21D;63746;45.402;37.922;2022-12-20T06:06:04;-0.45;73.83
75164;HTU21D;63746;45.402;37.922;2022-12-20T06:08:31;-0.42;73.77
75164;HTU21D;63746;45.402;37.922;2022-12-20T06:10:59;-0.41;73.80
75164;HTU21D;63746;45.402;37.922;2022-12-20T06:13:30;-0.41;73.53
75164;HTU21D;63746;45.402;37.922;2022-12-20T06:15:57;-0.40;73.60
75164;HTU21D;63746;45.402;37.922;2022-12-20T06:18:25;-0.40;73.61
75164;HTU21D;63746;45.402;37.922;2022-12-20T06:20:54;-0.39;73.53
75164;HTU21D;63746;45.402;37.922;2022-12-20T06:23:22;-0.38;73.70
75164;HTU21D;63746;45.402;37.922;2022-12-20T06:26:02;-0.35;73.96
75164;HTU21D;63746;45.402;37.922;2022-12-20T06:28:32;-0.28;74.08
75164;HTU21D;63746;45.402;37.922;2022-12-20T06:30:58;-0.20;74.37
75164;HTU21D;63746;45.402;37.922;2022-12-20T06:33:49;-0.10;74.47
75164;HTU21D;63746;45.402;37.922;2022-12-20T06:36:16;-0.06;74.43
75164;HTU21D;63746;45.402;37.922;2022-12-20T06:38:43;0.01;74.38
75164;HTU21D;63746;45.402;37.922;2022-12-20T06:41:09;0.08;74.55
75164;HTU21D;63746;45.402;37.922;2022-12-20T06:43:35;0.18;74.78
75164;HTU21D;63746;45.402;37.922;2022-12-20T06:46:01;0.24;74.58
75164;HTU21D;63746;45.402;37.922;2022-12-20T06:48:28;0.31;74.68
75164;HTU21D;63746;45.402;37.922;2022-12-20T06:50:54;0.38;74.56
75164;HTU21D;63746;45.402;37.922;2022-12-20T06:53:21;0.44;74.65
75164;HTU21D;63746;45.402;37.922;2022-12-20T06:55:47;0.52;74.73
75164;HTU21D;63746;45.402;37.922;2022-12-20T06:58:17;0.58;74.42
75164;HTU21D;63746;45.402;37.922;2022-12-20T07:00:46;0.62;74.15
75164;HTU21D;63746;45.402;37.922;2022-12-20T07:03:12;0.66;74.50
75164;HTU21D;63746;45.402;37.922;2022-12-20T07:05:38;0.72;74.38
75164;HTU21D;63746;45.402;37.922;2022-12-20T07:08:05;0.74;74.41
75164;HTU21D;63746;45.402;37.922;2022-12-20T07:10:35;0.78;74.44
75164;HTU21D;63746;45.402;37.922;2022-12-20T07:13:02;0.83;74.62
75164;HTU21D;63746;45.402;37.922;2022-12-20T07:15:28;0.95;75.01
75164;HTU21D;63746;45.402;37.922;2022-12-20T07:17:54;1.09;75.15
75164;HTU21D;63746;45.402;37.922;2022-12-20T07:20:19;1.21;75.02
75164;HTU21D;63746;45.402;37.922;2022-12-20T07:22:49;1.27;74.54
75164;HTU21D;63746;45.402;37.922;2022-12-20T07:25:15;1.32;74.44
75164;HTU21D;63746;45.402;37.922;2022-12-20T07:27:40;1.38;74.80
75164;HTU21D;63746;45.402;37.922;2022-12-20T07:30:07;1.46;74.51
75164;HTU21D;63746;45.402;37.922;2022-12-20T07:32:33;1.51;74.39
75164;HTU21D;63746;45.402;37.922;2022-12-20T07:34:59;1.52;74.28
75164;HTU21D;63746;45.402;37.922;2022-12-20T07:37:28;1.56;74.40
75164;HTU21D;63746;45.402;37.922;2022-12-20T07:39:54;1.63;74.24
75164;HTU21D;63746;45.402;37.922;2022-12-20T07:42:20;1.67;74.27
75164;HTU21D;63746;45.402;37.922;2022-12-20T07:44:48;1.71;74.22
75164;HTU21D;63746;45.402;37.922;2022-12-20T07:47:14;1.71;73.96
75164;HTU21D;63746;45.402;37.922;2022-12-20T07:49:40;1.80;74.54
75164;HTU21D;63746;45.402;37.922;2022-12-20T07:52:07;1.91;74.64
75164;HTU21D;63746;45.402;37.922;2022-12-20T07:54:37;2.01;74.70
75164;HTU21D;63746;45.402;37.922;2022-12-20T07:57:24;2.14;74.73
75164;HTU21D;63746;45.402;37.922;2022-12-20T07:59:54;2.20;74.25
75164;HTU21D;63746;45.402;37.922;2022-12-20T08:02:31;2.23;74.09
75164;HTU21D;63746;45.402;37.922;2022-12-20T08:04:58;2.25;73.90
75164;HTU21D;63746;45.402;37.922;2022-12-20T08:07:27;2.32;74.35
75164;HTU21D;63746;45.402;37.922;2022-12-20T08:09:54;2.41;74.02
75164;HTU21D;63746;45.402;37.922;2022-12-20T08:12:20;2.42;74.12
75164;HTU21D;63746;45.402;37.922;2022-12-20T08:14:46;2.46;74.27
75164;HTU21D;63746;45.402;37.922;2022-12-20T08:17:12;2.53;73.99
75164;HTU21D;63746;45.402;37.922;2022-12-20T08:19:38;2.54;73.62
75164;HTU21D;63746;45.402;37.922;2022-12-20T08:22:04;2.54;73.91
75164;HTU21D;63746;45.402;37.922;2022-12-20T08:24:32;2.61;74.31
75164;HTU21D;63746;45.402;37.922;2022-12-20T08:26:59;2.67;74.09
75164;HTU21D;63746;45.402;37.922;2022-12-20T08:29:25;2.71;74.14
75164;HTU21D;63746;45.402;37.922;2022-12-20T08:31:50;2.81;74.42
75164;HTU21D;63746;45.402;37.922;2022-12-20T08:34:17;2.99;74.73
75164;HTU21D;63746;45.402;37.922;2022-12-20T08:36:43;3.08;74.31
75164;HTU21D;63746;45.402;37.922;2022-12-20T08:39:09;3.13;74.06
75164;HTU21D;63746;45.402;37.922;2022-12-20T08:41:36;3.17;73.99
75164;HTU21D;63746;45.402;37.922;2022-12-20T08:44:04;3.24;74.01
75164;HTU21D;63746;45.402;37.922;2022-12-20T08:46:30;3.28;73.76
75164;HTU21D;63746;45.402;37.922;2022-12-20T08:48:56;3.27;73.72
75164;HTU21D;63746;45.402;37.922;2022-12-20T08:51:21;3.30;73.51
75164;HTU21D;63746;45.402;37.922;2022-12-20T08:53:47;3.32;73.56
75164;HTU21D;63746;45.402;37.922;2022-12-20T08:56:16;3.41;74.03
75164;HTU21D;63746;45.402;37.922;2022-12-20T08:58:43;3.49;73.78
75164;HTU21D;63746;45.402;37.922;2022-12-20T09:01:11;3.52;73.62
75164;HTU21D;63746;45.402;37.922;2022-12-20T09:03:38;3.53;73.59
75164;HTU21D;63746;45.402;37.922;2022-12-20T09:06:07;3.55;73.49
75164;HTU21D;63746;45.402;37.922;2022-12-20T09:08:34;3.56;73.61
75164;HTU21D;63746;45.402;37.922;2022-12-20T09:11:05;3.60;73.50
75164;HTU21D;63746;45.402;37.922;2022-12-20T09:13:31;3.69;73.88
75164;HTU21D;63746;45.402;37.922;2022-12-20T09:16:04;3.75;73.64
75164;HTU21D;63746;45.402;37.922;2022-12-20T09:18:31;3.75;73.41
75164;HTU21D;63746;45.402;37.922;2022-12-20T09:21:05;3.72;73.30
75164;HTU21D;63746;45.402;37.922;2022-12-20T09:23:31;3.73;73.47
75164;HTU21D;63746;45.402;37.922;2022-12-20T09:26:07;3.76;73.26
75164;HTU21D;63746;45.402;37.922;2022-12-20T09:28:33;3.77;73.39
75164;HTU21D;63746;45.402;37.922;2022-12-20T09:31:00;3.80;73.55
75164;HTU21D;63746;45.402;37.922;2022-12-20T09:33:27;3.90;73.42
75164;HTU21D;63746;45.402;37.922;2022-12-20T09:35:53;3.95;73.69
75164;HTU21D;63746;45.402;37.922;2022-12-20T09:38:19;3.99;73.73
75164;HTU21D;63746;45.402;37.922;2022-12-20T09:40:53;4.04;73.49
75164;HTU21D;63746;45.402;37.922;2022-12-20T09:43:20;4.06;73.59
75164;HTU21D;63746;45.402;37.922;2022-12-20T09:45:54;4.09;73.52
75164;HTU21D;63746;45.402;37.922;2022-12-20T09:48:23;4.14;73.52
75164;HTU21D;63746;45.402;37.922;2022-12-20T09:56:35;4.20;73.53
75164;HTU21D;63746;45.402;37.922;2022-12-20T09:59:10;4.27;73.55
75164;HTU21D;63746;45.402;37.922;2022-12-20T10:01:37;4.33;73.73
75164;HTU21D;63746;45.402;37.922;2022-12-20T10:04:06;4.37;73.28
75164;HTU21D;63746;45.402;37.922;2022-12-20T10:06:48;4.39;73.25
75164;HTU21D;63746;45.402;37.922;2022-12-20T10:23:03;4.60;72.58
75164;HTU21D;63746;45.402;37.922;2022-12-20T10:25:33;4.61;72.80
75164;HTU21D;63746;45.402;37.922;2022-12-20T10:28:02;4.64;73.09
75164;HTU21D;63746;45.402;37.922;2022-12-20T10:30:32;4.69;73.43
75164;HTU21D;63746;45.402;37.922;2022-12-20T10:32:59;4.76;73.38
75164;HTU21D;63746;45.402;37.922;2022-12-20T10:35:39;4.80;73.03
75164;HTU21D;63746;45.402;37.922;2022-12-20T10:38:10;4.87;73.50
75164;HTU21D;63746;45.402;37.922;2022-12-20T10:43:17;5.00;73.03
75164;HTU21D;63746;45.402;37.922;2022-12-20T10:45:58;5.03;73.27
75164;HTU21D;63746;45.402;37.922;2022-12-20T10:48:34;5.07;73.19
75164;HTU21D;63746;45.402;37.922;2022-12-20T10:51:03;5.05;72.95
75164;HTU21D;63746;45.402;37.922;2022-12-20T10:54:01;5.06;72.38
75164;HTU21D;63746;45.402;37.922;2022-12-20T10:56:29;5.09;72.83
75164;HTU21D;63746;45.402;37.922;2022-12-20T10:59:02;5.16;72.79
75164;HTU21D;63746;45.402;37.922;2022-12-20T11:01:33;5.16;72.48
75164;HTU21D;63746;45.402;37.922;2022-12-20T11:04:29;5.15;72.45
75164;HTU21D;63746;45.402;37.922;2022-12-20T11:06:56;5.18;72.46
75164;HTU21D;63746;45.402;37.922;2022-12-20T11:09:26;5.15;72.58
75164;HTU21D;63746;45.402;37.922;2022-12-20T11:12:13;5.12;72.35
75164;HTU21D;63746;45.402;37.922;2022-12-20T11:14:42;5.11;72.51
75164;HTU21D;63746;45.402;37.922;2022-12-20T11:22:28;4.94;71.88
75164;HTU21D;63746;45.402;37.922;2022-12-20T11:42:42;4.69;72.00
75164;HTU21D;63746;45.402;37.922;2022-12-20T11:54:18;4.52;72.08
75164;HTU21D;63746;45.402;37.922;2022-12-20T11:56:49;4.50;72.21
75164;HTU21D;63746;45.402;37.922;2022-12-20T11:59:48;4.44;71.74
75164;HTU21D;63746;45.402;37.922;2022-12-20T12:05:27;4.32;71.59
75164;HTU21D;63746;45.402;37.922;2022-12-20T12:07:58;4.29;72.22
75164;HTU21D;63746;45.402;37.922;2022-12-20T12:10:33;4.27;72.21
75164;HTU21D;63746;45.402;37.922;2022-12-20T12:13:15;4.27;71.94
75164;HTU21D;63746;45.402;37.922;2022-12-20T12:18:29;4.19;72.13
75164;HTU21D;63746;45.402;37.922;2022-12-20T12:21:05;4.16;72.40
75164;HTU21D;63746;45.402;37.922;2022-12-20T12:26:23;4.21;72.51
75164;HTU21D;63746;45.402;37.922;2022-12-20T12:29:01;4.21;72.58
75164;HTU21D;63746;45.402;37.922;2022-12-20T12:31:35;4.22;72.66
75164;HTU21D;63746;45.402;37.922;2022-12-20T12:34:47;4.22;72.24
75164;HTU21D;63746;45.402;37.922;2022-12-20T12:40:09;4.26;72.70
75164;HTU21D;63746;45.402;37.922;2022-12-20T12:45:45;4.23;72.56
75164;HTU21D;63746;45.402;37.922;2022-12-20T12:50:43;4.26;71.90
75164;HTU21D;63746;45.402;37.922;2022-12-20T12:55:57;4.23;72.79
75164;HTU21D;63746;45.402;37.922;2022-12-20T13:01:08;4.20;72.31
75164;HTU21D;63746;45.402;37.922;2022-12-20T13:11:36;4.04;72.56
75164;HTU21D;63746;45.402;37.922;2022-12-20T13:19:39;3.87;72.43
75164;HTU21D;63746;45.402;37.922;2022-12-20T13:24:53;3.74;72.11
75164;HTU21D;63746;45.402;37.922;2022-12-20T13:27:23;3.70;72.53
75164;HTU21D;63746;45.402;37.922;2022-12-20T13:29:57;3.67;71.26
75164;HTU21D;63746;45.402;37.922;2022-12-20T13:32:57;3.57;71.96
75164;HTU21D;63746;45.402;37.922;2022-12-20T13:41:30;3.45;72.61
75164;HTU21D;63746;45.402;37.922;2022-12-20T13:51:48;3.30;72.24
75164;HTU21D;63746;45.402;37.922;2022-12-20T13:54:17;3.26;72.62
75164;HTU21D;63746;45.402;37.922;2022-12-20T13:56:49;3.21;72.66
75164;HTU21D;63746;45.402;37.922;2022-12-20T13:59:25;3.17;72.66
75164;HTU21D;63746;45.402;37.922;2022-12-20T14:01:55;3.14;72.70
75164;HTU21D;63746;45.402;37.922;2022-12-20T14:04:25;3.09;72.67
75164;HTU21D;63746;45.402;37.922;2022-12-20T14:06:57;3.04;72.64
75164;HTU21D;63746;45.402;37.922;2022-12-20T14:12:09;2.93;72.47
75164;HTU21D;63746;45.402;37.922;2022-12-20T14:14:44;2.87;72.25
75164;HTU21D;63746;45.402;37.922;2022-12-20T14:20:02;2.75;72.40
75164;HTU21D;63746;45.402;37.922;2022-12-20T14:22:29;2.72;72.33
75164;HTU21D;63746;45.402;37.922;2022-12-20T14:24:55;2.67;72.38
75164;HTU21D;63746;45.402;37.922;2022-12-20T14:27:21;2.64;72.54
75164;HTU21D;63746;45.402;37.922;2022-12-20T14:29:47;2.60;72.64
75164;HTU21D;63746;45.402;37.922;2022-12-20T14:32:20;2.57;72.72
75164;HTU21D;63746;45.402;37.922;2022-12-20T14:34:47;2.53;72.74
75164;HTU21D;63746;45.402;37.922;2022-12-20T14:37:26;2.51;72.76
75164;HTU21D;63746;45.402;37.922;2022-12-20T14:39:56;2.50;72.93
75164;HTU21D;63746;45.402;37.922;2022-12-20T14:42:27;2.49;72.99
75164;HTU21D;63746;45.402;37.922;2022-12-20T14:45:16;2.47;72.87
75164;HTU21D;63746;45.402;37.922;2022-12-20T14:50:28;2.43;72.90
75164;HTU21D;63746;45.402;37.922;2022-12-20T14:52:55;2.40;72.90
75164;HTU21D;63746;45.402;37.922;2022-12-20T14:55:24;2.36;72.88
75164;HTU21D;63746;45.402;37.922;2022-12-20T14:57:54;2.34;73.02
75164;HTU21D;63746;45.402;37.922;2022-12-20T15:00:27;2.32;73.05
75164;HTU21D;63746;45.402;37.922;2022-12-20T15:08:10;2.25;73.07
75164;HTU21D;63746;45.402;37.922;2022-12-20T15:10:37;2.26;73.22
75164;HTU21D;63746;45.402;37.922;2022-12-20T15:13:03;2.25;73.09
75164;HTU21D;63746;45.402;37.922;2022-12-20T15:15:29;2.22;73.06
75164;HTU21D;63746;45.402;37.922;2022-12-20T15:17:56;2.22;73.02
75164;HTU21D;63746;45.402;37.922;2022-12-20T15:20:22;2.19;73.06
75164;HTU21D;63746;45.402;37.922;2022-12-20T15:22:48;2.19;73.25
75164;HTU21D;63746;45.402;37.922;2022-12-20T15:25:15;2.20;73.38
75164;HTU21D;63746;45.402;37.922;2022-12-20T15:27:43;2.23;73.45
75164;HTU21D;63746;45.402;37.922;2022-12-20T15:30:12;2.25;73.44
75164;HTU21D;63746;45.402;37.922;2022-12-20T15:32:39;2.26;73.42
75164;HTU21D;63746;45.402;37.922;2022-12-20T15:35:12;2.28;73.43
75164;HTU21D;63746;45.402;37.922;2022-12-20T15:37:39;2.29;73.41
75164;HTU21D;63746;45.402;37.922;2022-12-20T15:40:06;2.31;73.44
75164;HTU21D;63746;45.402;37.922;2022-12-20T15:42:35;2.36;73.45
75164;HTU21D;63746;45.402;37.922;2022-12-20T15:45:02;2.36;73.31
75164;HTU21D;63746;45.402;37.922;2022-12-20T15:47:28;2.35;73.19
75164;HTU21D;63746;45.402;37.922;2022-12-20T15:49:54;2.36;73.23
75164;HTU21D;63746;45.402;37.922;2022-12-20T15:52:22;2.37;73.22
75164;HTU21D;63746;45.402;37.922;2022-12-20T15:54:49;2.38;73.21
75164;HTU21D;63746;45.402;37.922;2022-12-20T15:57:15;2.39;73.22
75164;HTU21D;63746;45.402;37.922;2022-12-20T15:59:42;2.46;73.55
75164;HTU21D;63746;45.402;37.922;2022-12-20T16:02:26;2.56;73.69
75164;HTU21D;63746;45.402;37.922;2022-12-20T16:04:54;2.57;73.33
75164;HTU21D;63746;45.402;37.922;2022-12-20T16:07:21;2.55;73.00
75164;HTU21D;63746;45.402;37.922;2022-12-20T16:09:48;2.49;72.80
75164;HTU21D;63746;45.402;37.922;2022-12-20T16:12:34;2.42;72.54
75164;HTU21D;63746;45.402;37.922;2022-12-20T16:15:01;2.37;72.62
75164;HTU21D;63746;45.402;37.922;2022-12-20T16:17:28;2.32;72.67
75164;HTU21D;63746;45.402;37.922;2022-12-20T16:19:56;2.30;72.83
75164;HTU21D;63746;45.402;37.922;2022-12-20T16:22:23;2.28;72.89
75164;HTU21D;63746;45.402;37.922;2022-12-20T16:24:50;2.28;72.96
75164;HTU21D;63746;45.402;37.922;2022-12-20T16:27:17;2.29;73.06
75164;HTU21D;63746;45.402;37.922;2022-12-20T16:29:43;2.29;73.10
75164;HTU21D;63746;45.402;37.922;2022-12-20T16:32:18;2.30;73.10
75164;HTU21D;63746;45.402;37.922;2022-12-20T16:34:45;2.29;73.03
75164;HTU21D;63746;45.402;37.922;2022-12-20T16:37:12;2.29;72.98
75164;HTU21D;63746;45.402;37.922;2022-12-20T16:39:38;2.29;72.98
75164;HTU21D;63746;45.402;37.922;2022-12-20T16:42:15;2.27;72.93
75164;HTU21D;63746;45.402;37.922;2022-12-20T16:44:42;2.27;72.93
75164;HTU21D;63746;45.402;37.922;2022-12-20T16:47:10;2.26;72.95
75164;HTU21D;63746;45.402;37.922;2022-12-20T16:49:37;2.25;72.88
75164;HTU21D;63746;45.402;37.922;2022-12-20T16:52:04;2.24;72.83
75164;HTU21D;63746;45.402;37.922;2022-12-20T16:54:31;2.21;72.77
75164;HTU21D;63746;45.402;37.922;2022-12-20T16:56:58;2.19;72.80
75164;HTU21D;63746;45.402;37.922;2022-12-20T16:59:24;2.19;72.78
75164;HTU21D;63746;45.402;37.922;2022-12-20T17:01:53;2.15;72.77
75164;HTU21D;63746;45.402;37.922;2022-12-20T17:04:20;2.13;72.73
75164;HTU21D;63746;45.402;37.922;2022-12-20T17:06:47;2.12;72.74
75164;HTU21D;63746;45.402;37.922;2022-12-20T17:09:14;2.10;72.73
75164;HTU21D;63746;45.402;37.922;2022-12-20T17:11:43;2.06;72.45
75164;HTU21D;63746;45.402;37.922;2022-12-20T17:14:12;2.00;72.59
75164;HTU21D;63746;45.402;37.922;2022-12-20T17:16:39;1.97;72.61
75164;HTU21D;63746;45.402;37.922;2022-12-20T17:19:06;1.94;72.60
75164;HTU21D;63746;45.402;37.922;2022-12-20T17:21:45;1.92;72.61
75164;HTU21D;63746;45.402;37.922;2022-12-20T17:24:21;1.88;72.54
75164;HTU21D;63746;45.402;37.922;2022-12-20T17:26:48;1.85;72.57
75164;HTU21D;63746;45.402;37.922;2022-12-20T17:29:15;1.84;72.61
75164;HTU21D;63746;45.402;37.922;2022-12-20T17:31:44;1.82;72.60
75164;HTU21D;63746;45.402;37.922;2022-12-20T17:34:29;1.80;72.55
75164;HTU21D;63746;45.402;37.922;2022-12-20T17:36:56;1.77;72.55
75164;HTU21D;63746;45.402;37.922;2022-12-20T17:39:24;1.75;72.55
75164;HTU21D;63746;45.402;37.922;2022-12-20T17:41:54;1.72;72.51
75164;HTU21D;63746;45.402;37.922;2022-12-20T17:46:49;1.63;72.39